createdAt,value
2023-05-11T00:03:10.539Z,13.98
2023-05-11T00:07:13.819Z,13.95
2023-05-11T00:11:18.786Z,13.92
2023-05-11T00:15:22.414Z,13.90
2023-05-11T00:19:25.426Z,13.91
2023-05-11T00:23:28.425Z,13.85
2023-05-11T00:27:32.801Z,13.85
2023-05-11T00:31:35.955Z,13.84
2023-05-11T00:35:39.254Z,13.83
2023-05-11T00:39:42.307Z,13.80
2023-05-11T00:43:46.872Z,13.79
2023-05-11T00:47:49.969Z,13.78
2023-05-11T00:51:53.148Z,13.80
2023-05-11T00:55:56.238Z,13.80
2023-05-11T01:00:02.658Z,13.78
2023-05-11T01:04:06.610Z,13.77
2023-05-11T01:08:14.382Z,13.80
2023-05-11T01:12:27.857Z,13.79
2023-05-11T01:16:39.312Z,13.76
2023-05-11T01:20:47.957Z,13.77
2023-05-11T01:25:06.774Z,13.77
2023-05-11T01:29:44.203Z,13.76
2023-05-11T01:33:55.301Z,13.76
2023-05-11T01:38:00.850Z,13.77
2023-05-11T01:42:09.712Z,13.80
2023-05-11T01:46:15.672Z,13.79
2023-05-11T01:50:22.561Z,13.76
2023-05-11T01:54:26.587Z,13.72
2023-05-11T01:58:31.065Z,13.64
2023-05-11T02:02:35.379Z,13.59
2023-05-11T02:06:42.220Z,13.51
2023-05-11T02:10:47.786Z,13.45
2023-05-11T02:14:53.664Z,13.42
2023-05-11T02:18:58.877Z,13.42
2023-05-11T02:23:04.542Z,13.42
2023-05-11T02:27:07.735Z,13.46
2023-05-11T02:31:17.825Z,13.47
2023-05-11T02:35:25.168Z,13.51
2023-05-11T02:39:34.643Z,13.49
2023-05-11T02:43:43.405Z,13.47
2023-05-11T02:47:53.290Z,13.43
2023-05-11T02:52:02.270Z,13.39
2023-05-11T02:56:09.712Z,13.37
2023-05-11T03:00:14.462Z,13.38
2023-05-11T03:04:18.579Z,13.37
2023-05-11T03:08:21.739Z,13.36
2023-05-11T03:12:31.500Z,13.35
2023-05-11T03:16:38.538Z,13.33
2023-05-11T03:20:45.783Z,13.33
2023-05-11T03:24:49.660Z,13.31
2023-05-11T03:28:55.188Z,13.29
2023-05-11T03:32:58.594Z,13.28
2023-05-11T03:37:03.178Z,13.22
2023-05-11T03:41:06.358Z,13.21
2023-05-11T03:45:17.701Z,13.25
2023-05-11T03:49:21.538Z,13.23
2023-05-11T03:53:25.674Z,13.22
2023-05-11T03:57:29.279Z,13.20
2023-05-11T04:01:34.333Z,13.20
2023-05-11T04:05:37.471Z,13.19
2023-05-11T04:09:43.180Z,13.18
2023-05-11T04:13:46.285Z,13.17
2023-05-11T04:17:51.534Z,13.19
2023-05-11T04:21:54.609Z,13.21
2023-05-11T04:25:57.797Z,13.23
2023-05-11T04:30:00.821Z,13.23
2023-05-11T04:34:09.033Z,13.16
2023-05-11T04:38:13.589Z,13.12
2023-05-11T04:42:16.792Z,13.16
2023-05-11T04:46:23.854Z,13.19
2023-05-11T04:50:29.543Z,13.25
2023-05-11T04:54:33.346Z,13.32
2023-05-11T04:58:36.616Z,13.32
2023-05-11T05:02:39.753Z,13.34
2023-05-11T05:06:44.195Z,13.36
2023-05-11T05:10:48.536Z,13.36
2023-05-11T05:14:51.749Z,13.38
2023-05-11T05:18:55.013Z,13.38
2023-05-11T05:23:00.079Z,13.41
2023-05-11T05:27:03.212Z,13.50
2023-05-11T05:31:06.442Z,13.54
2023-05-11T05:35:10.749Z,13.58
2023-05-11T05:39:15.673Z,13.64
2023-05-11T05:43:18.803Z,13.74
2023-05-11T05:47:22.379Z,13.81
2023-05-11T05:51:25.680Z,13.93
2023-05-11T05:55:30.361Z,13.97
2023-05-11T05:59:34.458Z,14.06
2023-05-11T06:03:38.702Z,14.12
2023-05-11T06:07:42.022Z,14.21
2023-05-11T06:11:46.525Z,14.30
2023-05-11T06:15:49.790Z,14.37
2023-05-11T06:20:08.132Z,14.49
2023-05-11T06:24:12.076Z,14.51
2023-05-11T06:28:19.306Z,14.56
2023-05-11T06:32:22.491Z,14.69
2023-05-11T06:36:25.636Z,14.73
2023-05-11T06:40:29.281Z,14.83
2023-05-11T06:44:34.306Z,14.92
2023-05-11T06:48:37.652Z,15.05
2023-05-11T06:52:40.676Z,15.18
2023-05-11T06:56:43.862Z,15.33
2023-05-11T07:00:48.573Z,15.42
2023-05-11T07:04:51.692Z,15.50
2023-05-11T07:08:54.735Z,15.57
2023-05-11T07:12:57.779Z,15.60
2023-05-11T07:17:02.329Z,15.68
2023-05-11T07:21:05.461Z,15.67
2023-05-11T07:25:10.459Z,15.65
2023-05-11T07:29:13.517Z,15.76
2023-05-11T07:33:17.957Z,15.81
2023-05-11T07:37:21.030Z,15.84
2023-05-11T07:41:26.862Z,15.88
2023-05-11T07:45:29.951Z,16.04
2023-05-11T07:49:42.922Z,16.12
2023-05-11T07:53:47.208Z,16.29
2023-05-11T07:57:50.253Z,16.47
2023-05-11T08:01:53.485Z,16.58
2023-05-11T08:05:58.180Z,16.72
2023-05-11T08:10:01.294Z,16.92
2023-05-11T08:14:04.767Z,17.03
2023-05-11T08:18:08.230Z,17.13
2023-05-11T08:22:12.760Z,17.09
2023-05-11T08:26:16.471Z,17.12
2023-05-11T08:30:19.940Z,17.13
2023-05-11T08:34:23.520Z,17.17
2023-05-11T08:38:28.012Z,17.18
2023-05-11T08:42:35.151Z,17.37
2023-05-11T08:46:42.920Z,17.49
2023-05-11T08:50:46.734Z,17.64
2023-05-11T08:54:51.136Z,17.71
2023-05-11T08:58:56.173Z,17.78
2023-05-11T09:02:59.659Z,17.80
2023-05-11T09:07:02.740Z,17.91
2023-05-11T09:11:07.963Z,17.98
2023-05-11T09:15:12.306Z,18.05
2023-05-11T09:19:16.730Z,18.18
2023-05-11T09:23:20.473Z,18.28
2023-05-11T09:27:26.150Z,18.29
2023-05-11T09:31:42.855Z,18.30
2023-05-11T09:35:46.050Z,18.21
2023-05-11T09:40:12.978Z,18.17
2023-05-11T09:44:20.476Z,18.19
2023-05-11T09:48:29.641Z,18.28
2023-05-11T09:52:32.929Z,18.40
2023-05-11T09:56:49.597Z,18.30
2023-05-11T10:00:54.838Z,18.22
2023-05-11T10:04:59.465Z,18.17
2023-05-11T10:09:10.045Z,18.20
2023-05-11T10:13:13.203Z,18.30
2023-05-11T10:17:18.322Z,18.53
2023-05-11T10:21:21.841Z,18.75
2023-05-11T10:25:26.578Z,18.87
2023-05-11T10:29:30.768Z,18.94
2023-05-11T10:33:36.583Z,18.89
2023-05-11T10:37:41.566Z,18.99
2023-05-11T10:41:54.367Z,19.13
2023-05-11T10:46:09.464Z,19.12
2023-05-11T10:50:30.527Z,19.14
2023-05-11T10:54:47.629Z,19.19
2023-05-11T10:59:07.584Z,19.35
2023-05-11T11:03:12.495Z,19.41
2023-05-11T11:07:18.760Z,19.47
2023-05-11T11:11:36.006Z,19.52
2023-05-11T11:16:16.200Z,19.52
2023-05-11T11:20:48.816Z,19.53
2023-05-11T11:24:53.282Z,19.49
2023-05-11T11:29:12.370Z,19.41
2023-05-11T11:33:35.618Z,19.38
2023-05-11T11:38:03.091Z,19.29
2023-05-11T11:42:09.486Z,19.24
2023-05-11T11:46:27.104Z,19.30
2023-05-11T11:50:30.386Z,19.29
2023-05-11T11:54:40.146Z,19.21
2023-05-11T11:59:01.343Z,19.25
2023-05-11T12:03:05.842Z,19.28
2023-05-11T12:07:11.499Z,19.38
2023-05-11T12:11:19.039Z,19.42
2023-05-11T12:15:27.668Z,19.44
2023-05-11T12:19:30.968Z,19.51
2023-05-11T12:23:34.048Z,19.58
2023-05-11T12:27:37.398Z,19.56
2023-05-11T12:31:43.775Z,19.65
2023-05-11T12:35:47.049Z,19.88
2023-05-11T12:39:55.369Z,20.02
2023-05-11T12:43:58.668Z,20.12
2023-05-11T12:48:04.336Z,20.09
2023-05-11T12:52:09.187Z,20.11
2023-05-11T12:56:12.474Z,20.21
2023-05-11T13:00:18.968Z,20.22
2023-05-11T13:04:33.879Z,20.25
2023-05-11T13:08:37.968Z,20.28
2023-05-11T13:12:49.549Z,20.25
2023-05-11T13:16:55.847Z,20.21
2023-05-11T13:21:09.844Z,20.17
2023-05-11T13:25:13.178Z,20.10
2023-05-11T13:29:16.461Z,20.08
2023-05-11T13:33:19.934Z,20.11
2023-05-11T13:37:24.402Z,20.16
2023-05-11T13:41:27.380Z,20.17
2023-05-11T13:45:30.496Z,20.08
2023-05-11T13:49:33.391Z,20.04
2023-05-11T13:53:37.634Z,20.07
2023-05-11T13:57:40.796Z,20.12
2023-05-11T14:01:43.857Z,20.10
2023-05-11T14:05:49.021Z,20.05
2023-05-11T14:09:53.328Z,19.97
2023-05-11T14:13:56.262Z,19.92
2023-05-11T14:18:00.464Z,19.82
2023-05-11T14:22:03.523Z,19.77
2023-05-11T14:26:07.945Z,19.71
2023-05-11T14:30:11.655Z,19.69
2023-05-11T14:34:14.547Z,19.66
2023-05-11T14:38:17.694Z,19.61
2023-05-11T14:42:22.129Z,19.63
2023-05-11T14:46:26.715Z,19.68
2023-05-11T14:50:30.301Z,19.66
2023-05-11T14:54:33.221Z,19.57
2023-05-11T14:58:37.645Z,19.54
2023-05-11T15:02:40.951Z,19.48
2023-05-11T15:06:44.135Z,19.44
2023-05-11T15:10:47.110Z,19.43
2023-05-11T15:14:51.938Z,19.44
2023-05-11T15:18:55.195Z,19.42
2023-05-11T15:22:58.239Z,19.38
2023-05-11T15:27:01.226Z,19.34
2023-05-11T15:31:05.522Z,19.32
2023-05-11T15:35:09.148Z,19.31
2023-05-11T15:39:12.202Z,19.33
2023-05-11T15:43:15.162Z,19.29
2023-05-11T15:47:19.479Z,19.23
2023-05-11T15:51:22.634Z,19.15
2023-05-11T15:55:25.640Z,19.06
2023-05-11T15:59:28.663Z,19.08
2023-05-11T16:03:33.229Z,19.06
2023-05-11T16:07:36.218Z,19.05
2023-05-11T16:11:39.128Z,19.03
2023-05-11T16:15:42.151Z,18.96
2023-05-11T16:19:46.619Z,18.94
2023-05-11T16:23:49.559Z,18.93
2023-05-11T16:27:52.521Z,18.93
2023-05-11T16:31:55.876Z,18.90
2023-05-11T16:36:00.276Z,18.86
2023-05-11T16:40:04.760Z,18.80
2023-05-11T16:44:07.724Z,18.74
2023-05-11T16:48:10.784Z,18.69
2023-05-11T16:52:15.045Z,18.62
2023-05-11T16:56:18.042Z,18.57
2023-05-11T17:00:21.657Z,18.54
2023-05-11T17:04:25.006Z,18.49
2023-05-11T17:08:29.617Z,18.48
2023-05-11T17:12:35.575Z,18.46
2023-05-11T17:16:38.680Z,18.43
2023-05-11T17:20:42.072Z,18.42
2023-05-11T17:24:46.792Z,18.40
2023-05-11T17:28:49.806Z,18.37
2023-05-11T17:32:53.083Z,18.32
2023-05-11T17:36:56.641Z,18.27
2023-05-11T17:41:04.765Z,18.24
2023-05-11T17:45:09.508Z,18.17
2023-05-11T17:49:12.427Z,18.13
2023-05-11T17:53:15.403Z,18.12
2023-05-11T17:57:19.687Z,18.08
2023-05-11T18:01:22.848Z,18.05
2023-05-11T18:05:33.361Z,18.03
2023-05-11T18:09:39.758Z,17.99
2023-05-11T18:13:44.035Z,17.97
2023-05-11T18:17:47.006Z,17.94
2023-05-11T18:21:51.938Z,17.92
2023-05-11T18:25:55.165Z,17.77
2023-05-11T18:29:59.510Z,17.51
2023-05-11T18:34:02.416Z,17.22
2023-05-11T18:38:05.398Z,16.98
2023-05-11T18:42:08.499Z,16.83
2023-05-11T18:46:12.821Z,16.67
2023-05-11T18:50:15.992Z,16.48
2023-05-11T18:54:18.919Z,16.31
2023-05-11T18:58:22.466Z,16.22
2023-05-11T19:02:26.839Z,16.05
2023-05-11T19:06:29.955Z,15.91
2023-05-11T19:10:32.922Z,15.79
2023-05-11T19:14:37.407Z,15.67
2023-05-11T19:18:41.703Z,15.59
2023-05-11T19:22:44.899Z,15.46
2023-05-11T19:27:02.559Z,15.33
2023-05-11T19:31:09.344Z,15.19
2023-05-11T19:35:14.754Z,15.09
2023-05-11T19:39:18.034Z,15.01
2023-05-11T19:43:20.983Z,14.98
2023-05-11T19:47:23.905Z,14.92
2023-05-11T19:51:28.211Z,14.83
2023-05-11T19:55:31.309Z,14.77
2023-05-11T19:59:34.261Z,14.67
2023-05-11T20:03:37.334Z,14.60
2023-05-11T20:07:41.805Z,14.56
2023-05-11T20:11:44.809Z,14.54
2023-05-11T20:15:48.868Z,14.49
2023-05-11T20:19:51.901Z,14.46
2023-05-11T20:23:56.664Z,14.41
2023-05-11T20:27:59.645Z,14.33
2023-05-11T20:32:02.829Z,14.31
2023-05-11T20:36:06.338Z,14.23
2023-05-11T20:40:14.578Z,14.18
2023-05-11T20:44:19.720Z,14.11
2023-05-11T20:48:32.464Z,14.10
2023-05-11T20:52:42.541Z,14.10
2023-05-11T20:56:47.365Z,14.06
2023-05-11T21:00:50.363Z,14.07
2023-05-11T21:04:54.081Z,14.07
2023-05-11T21:08:57.142Z,14.09
2023-05-11T21:13:01.888Z,14.09
2023-05-11T21:17:04.850Z,14.08
2023-05-11T21:21:09.156Z,14.07
2023-05-11T21:25:16.057Z,14.08
2023-05-11T21:29:20.566Z,14.06
2023-05-11T21:33:23.725Z,14.03
2023-05-11T21:37:26.913Z,13.99
2023-05-11T21:41:29.922Z,13.96
2023-05-11T21:45:36.876Z,13.96
2023-05-11T21:49:39.852Z,13.95
2023-05-11T21:53:42.766Z,13.98
2023-05-11T21:57:45.705Z,14.00
2023-05-11T22:01:50.003Z,14.04
2023-05-11T22:05:52.909Z,14.04
2023-05-11T22:09:56.041Z,13.95
2023-05-11T22:13:59.054Z,13.82
2023-05-11T22:18:07.408Z,13.77
2023-05-11T22:22:10.380Z,13.75
2023-05-11T22:26:13.322Z,13.78
2023-05-11T22:30:16.498Z,13.79
2023-05-11T22:34:22.044Z,13.72
2023-05-11T22:38:24.994Z,13.66
2023-05-11T22:42:30.668Z,13.65
2023-05-11T22:46:33.658Z,13.67
2023-05-11T22:50:37.920Z,13.65
2023-05-11T22:54:40.864Z,13.63
2023-05-11T22:58:43.756Z,13.57
2023-05-11T23:02:47.185Z,13.60
2023-05-11T23:06:51.533Z,13.60
2023-05-11T23:10:54.679Z,13.62
2023-05-11T23:14:57.589Z,13.64
2023-05-11T23:19:02.361Z,13.65
2023-05-11T23:23:06.683Z,13.64
2023-05-11T23:27:09.733Z,13.61
2023-05-11T23:31:12.689Z,13.62
2023-05-11T23:35:15.857Z,13.63
2023-05-11T23:39:35.497Z,13.60
2023-05-11T23:43:38.510Z,13.58
2023-05-11T23:47:41.439Z,13.59
2023-05-11T23:51:44.509Z,13.57
2023-05-11T23:55:49.295Z,13.55
2023-05-11T23:59:52.237Z,13.51
